SUCCESS DAM (SCC)

Elevation: 692' · TULE R basin · Operator: US Army Corps of Engineers

Provisional data, subject to change.
Query executed Monday at 5:29:11   clock

Select a sensor type for a plot of data.
Note: Reservoir Flows are daily averages.

Earlier

Date RES ELE    STORAGE    RES CHG    TOC STO    ABV TOC    OUTFLOW    INFLOW    FNF    PPT INC    PPTINC4    TEMP MN    TEMP MX    WINDLEN    EVP PAN   
 FEET   AF   AF   AF   AF   CFS   CFS   CFS   INCHES   INCHES   DEG F   DEG F   MILES   INCHES  
03/01/2015 588.99 7325 70 19402 -12077 11 48 48 0.00 0.01 4 16 56 0.08
03/02/2015 589.16 7395 70 19723 -12328 11 47 47 0.06 0.01 6 17 52 0.08
03/03/2015 589.29 7448 53 20043 -12595 16 44 44 0.00 0.06 4 18 68 0.11
03/04/2015 589.40 7494 46 20364 -12870 17 41 41 0.03 0.00 6 21 70 0.14
03/05/2015 589.48 7528 34 20685 -13157 17 36 36 0.02 0.00 6 23 63 0.15
03/06/2015 589.55 7557 29 21006 -13449 17 34 34 0.00 0.00 6 24 58 0.15
03/07/2015 589.62 7586 29 21326 -13740 17 34 34 0.03 0.00 7 25 57 0.16
03/08/2015 589.68 7611 25 21647 -14036 17 32 32 0.00 0.00 7 26 56 0.16
03/09/2015 589.75 7641 30 21968 -14327 16 33 33 0.00 0.00 8 27 59 0.17
03/10/2015 589.81 7666 25 22689 -15023 16 30 30 0.02 0.00 10 29 62 0.18
03/11/2015 589.86 7688 22 23009 -15321 16 28 28 0.00 0.00 14 22 59 0.09
03/12/2015 589.90 7705 17 23330 -15625 16 26 26 0.00 0.00 7 24 66 0.14
03/13/2015 589.94 7722 17 23651 -15929 16 26 26 0.00 0.00 9 29 60 0.18
03/14/2015 589.98 7739 17 23972 -16233 16 27 27 0.04 0.00 13 33 58 0.20
03/15/2015 590.01 7751 12 24292 -16541 16 24 24 0.00 0.00 16 34 71 0.20
03/16/2015 590.02 7756 5 24613 -16857 17 22 22 0.00 0.00 12 27 59 0.17
03/17/2015 590.03 7760 4 24934 -17174 18 21 21 0.00 0.00 11 23 59 0.11
03/18/2015 590.03 7760 -- 25255 -17495 14 16 16 0.00 0.00 14 23 55 0.13
03/19/2015 590.08 7781 21 25575 -17794 6 18 19 0.00 0.00 12 28 59 0.19
03/20/2015 590.18 7824 43 25896 -18072 3 27 27 0.00 0.00 12 29 57 0.18
03/21/2015 590.31 7880 56 26217 -18337 2 32 32 0.00 0.00 10 26 63 0.18
03/22/2015 590.43 7932 52 26538 -18606 1 30 30 0.00 0.00 10 26 85 0.19
03/23/2015 590.54 7980 48 26858 -18878 2 28 28 0.00 0.00 12 23 70 0.16
03/24/2015 590.65 8028 48 27179 -19151 3 29 29 0.00 0.00 7 23 59 0.16
03/25/2015 590.76 8076 48 27500 -19424 2 29 29 0.00 0.00 9 27 54 0.18
03/26/2015 590.86 8120 44 27821 -19701 4 29 29 0.00 0.00 11 32 58 0.21
03/27/2015 590.95 8160 40 28141 -19981 3 26 -- 0.00 0.00 14 34 62 0.23
03/28/2015 -- -- -- -- -- -- -- -- -- 0.00 -- -- -- --
03/29/2015 -- -- -- -- -- -- -- -- -- 0.00 -- -- -- --
03/30/2015 -- -- -- -- -- -- -- -- -- -- -- -- -- --

Later | Latest

Warning! This data is preliminary and subject to revision.

Show SCC Map | Plot SCC Data | 1 Month SCC Data | Real-Time SCC Data | SCC Info